Time;durP1;ratioP1;P1;durP2;ratioP2;P2;SDS_P1;SDS_P2;PMS_P1;PMS_P2;Temp;Humidity;BMP_temperature;BMP_pressure;BME280_temperature;BME280_humidity;BME280_pressure;Samples;Min_cycle;Max_cycle;Signal;HPM_P1;HPM_P2
2023/09/04 00:00:43;;;;;;;5.60;2.70;;;;;;;24.59;53.64;101469.34;5080773;28;20103;-53
2023/09/04 00:03:09;;;;;;;5.93;2.67;;;;;;;24.42;54.17;101456.06;5080294;28;20039;-48
2023/09/04 00:05:36;;;;;;;5.35;2.55;;;;;;;24.10;55.04;101457.31;5092655;28;20359;-47
2023/09/04 00:08:02;;;;;;;7.03;2.70;;;;;;;23.96;55.94;101453.56;5090378;28;20419;-46
2023/09/04 00:10:29;;;;;;;6.88;2.75;;;;;;;23.77;57.27;101467.03;5092278;28;20028;-51
2023/09/04 00:12:55;;;;;;;8.60;2.75;;;;;;;23.90;56.68;101460.97;5091026;28;20078;-47
2023/09/04 00:15:21;;;;;;;4.13;2.30;;;;;;;23.60;57.96;101467.34;5080923;28;20078;-50
2023/09/04 00:17:51;;;;;;;7.90;2.85;;;;;;;23.87;57.83;101466.16;5075328;28;20030;-45
2023/09/04 00:20:17;;;;;;;6.18;2.65;;;;;;;23.75;56.96;101466.47;5076008;28;20039;-48
2023/09/04 00:22:43;;;;;;;4.20;2.55;;;;;;;23.83;57.35;101457.72;5082079;28;20482;-49
2023/09/04 00:25:10;;;;;;;6.55;2.10;;;;;;;23.84;57.94;101453.06;5091251;28;20762;-46
2023/09/04 00:27:36;;;;;;;5.65;2.42;;;;;;;23.86;58.14;101464.53;5091172;28;20024;-49
2023/09/04 00:30:02;;;;;;;3.75;2.40;;;;;;;23.82;57.66;101461.56;5091370;28;20020;-48
2023/09/04 00:32:28;;;;;;;8.85;2.97;;;;;;;23.68;57.59;101455.84;5091627;28;20028;-50
2023/09/04 00:34:55;;;;;;;7.35;3.15;;;;;;;23.49;58.55;101451.25;5091725;28;20028;-48
2023/09/04 00:37:21;;;;;;;5.85;2.80;;;;;;;23.44;58.75;101449.34;5091451;28;20039;-48
2023/09/04 00:39:47;;;;;;;6.18;3.13;;;;;;;23.25;59.81;101443.63;5095167;28;20054;-47
2023/09/04 00:42:15;;;;;;;5.40;2.55;;;;;;;23.34;59.43;101447.47;5095252;28;20028;-49
2023/09/04 00:44:46;;;;;;;7.20;3.40;;;;;;;23.18;60.09;101452.13;5095311;28;20036;-49
2023/09/04 00:47:14;;;;;;;5.63;2.88;;;;;;;23.20;59.47;101457.31;5094884;28;20028;-47
2023/09/04 00:49:42;;;;;;;8.50;2.95;;;;;;;23.05;60.03;101454.63;5095431;28;20521;-49
2023/09/04 00:52:10;;;;;;;7.38;3.00;;;;;;;23.07;60.08;101455.97;5094914;28;20059;-47
2023/09/04 00:54:37;;;;;;;8.02;3.10;;;;;;;22.75;61.09;101464.41;5095268;28;20034;-50
2023/09/04 00:57:08;;;;;;;7.43;3.28;;;;;;;22.75;61.48;101461.66;5095024;28;20052;-47
2023/09/04 00:59:34;;;;;;;6.55;3.40;;;;;;;22.71;61.63;101467.94;5095113;28;20028;-50
2023/09/04 01:02:01;;;;;;;6.00;2.80;;;;;;;22.55;62.14;101470.69;5083336;28;20090;-49
2023/09/04 01:04:28;;;;;;;5.60;3.22;;;;;;;22.48;62.11;101470.09;5073785;28;20092;-49
2023/09/04 01:06:54;;;;;;;6.85;3.22;;;;;;;22.31;62.55;101469.53;5073823;28;20025;-49
2023/09/04 01:09:24;;;;;;;10.38;3.20;;;;;;;22.40;62.91;101466.00;5074122;28;20020;-46
2023/09/04 01:12:09;;;;;;;10.73;3.17;;;;;;;22.26;63.02;101466.78;5074930;28;20074;-50
2023/09/04 01:14:36;;;;;;;5.38;3.13;;;;;;;22.28;63.18;101467.34;5074109;28;20055;-49
2023/09/04 01:17:03;;;;;;;7.13;4.05;;;;;;;22.25;63.45;101473.31;5073915;28;20039;-48
2023/09/04 01:19:30;;;;;;;6.63;3.17;;;;;;;22.33;63.05;101472.81;5073674;28;20040;-50
2023/09/04 01:21:56;;;;;;;9.65;3.63;;;;;;;22.35;62.99;101474.16;5073965;28;20021;-49
2023/09/04 01:24:22;;;;;;;11.18;3.88;;;;;;;22.22;63.15;101476.59;5073854;28;20107;-46
2023/09/04 01:27:15;;;;;;;8.00;3.47;;;;;;;22.30;63.33;101473.34;5073639;28;20030;-49
2023/09/04 01:29:50;;;;;;;8.57;4.13;;;;;;;22.12;63.38;101474.66;5059225;28;20048;-47
2023/09/04 01:32:40;;;;;;;8.25;3.30;;;;;;;22.12;63.68;101477.38;5079956;28;20032;-47
2023/09/04 01:35:09;;;;;;;7.68;3.10;;;;;;;22.30;62.85;101478.78;5090529;28;20085;-49
2023/09/04 01:37:36;;;;;;;8.93;3.60;;;;;;;22.42;62.80;101476.63;5095780;28;20036;-47
2023/09/04 01:40:04;;;;;;;7.00;3.58;;;;;;;22.34;62.59;101478.00;5081375;28;20130;-46
2023/09/04 01:42:31;;;;;;;6.95;3.40;;;;;;;22.34;62.45;101479.91;5086362;28;20020;-49
2023/09/04 01:44:57;;;;;;;8.90;3.78;;;;;;;22.30;62.78;101479.59;5073439;28;20035;-45
2023/09/04 01:47:24;;;;;;;7.95;3.80;;;;;;;22.33;62.59;101476.38;5086823;28;20032;-46
2023/09/04 01:49:50;;;;;;;8.27;3.10;;;;;;;22.31;63.27;101478.53;5082062;28;20437;-46
2023/09/04 01:52:17;;;;;;;8.50;3.40;;;;;;;22.14;63.66;101480.66;5088348;28;20048;-45
2023/09/04 01:54:43;;;;;;;8.32;3.60;;;;;;;21.86;64.21;101485.41;5082574;28;20035;-47
2023/09/04 01:57:09;;;;;;;9.50;4.40;;;;;;;22.03;64.27;101477.03;5073354;28;20037;-47
2023/09/04 01:59:35;;;;;;;5.40;3.28;;;;;;;22.02;64.10;101482.75;5079671;28;20479;-45
2023/09/04 02:02:02;;;;;;;8.40;3.25;;;;;;;21.88;64.44;101480.53;5073259;28;20395;-46
2023/09/04 02:04:31;;;;;;;5.75;3.00;;;;;;;21.80;64.90;101470.13;5073133;28;20036;-49
2023/09/04 02:06:58;;;;;;;7.47;3.20;;;;;;;21.58;65.45;101473.03;5072757;28;20052;-48
2023/09/04 02:09:25;;;;;;;10.18;3.97;;;;;;;21.58;65.15;101478.47;5081969;28;20450;-48
2023/09/04 02:11:51;;;;;;;7.05;3.50;;;;;;;21.54;65.43;101477.38;5091822;28;20068;-46
2023/09/04 02:14:17;;;;;;;6.93;3.20;;;;;;;21.59;65.52;101473.84;5113867;28;20108;-46
2023/09/04 02:16:44;;;;;;;8.90;3.75;;;;;;;21.59;66.02;101473.84;5113404;28;20031;-49
2023/09/04 02:19:10;;;;;;;6.75;3.40;;;;;;;21.44;66.43;101471.03;5113566;28;20024;-47
2023/09/04 02:21:36;;;;;;;8.43;4.05;;;;;;;21.22;67.41;101469.25;5113694;28;20032;-49
2023/09/04 02:24:02;;;;;;;6.07;3.42;;;;;;;21.31;67.36;101469.59;5113257;28;20469;-45
2023/09/04 02:26:29;;;;;;;5.80;3.20;;;;;;;21.32;67.10;101474.78;5103476;28;20036;-48
2023/09/04 02:28:55;;;;;;;10.18;5.22;;;;;;;21.31;66.96;101469.59;5092947;28;20028;-45
2023/09/04 02:31:21;;;;;;;5.95;3.58;;;;;;;21.19;67.82;101471.66;5093437;28;20110;-45
2023/09/04 02:33:47;;;;;;;5.57;3.22;;;;;;;21.23;67.94;101470.06;5092903;28;20024;-45
2023/09/04 02:36:14;;;;;;;7.75;3.17;;;;;;;20.94;68.70;101464.13;5090562;28;20457;-49
2023/09/04 02:38:41;;;;;;;8.75;3.40;;;;;;;21.06;68.77;101471.03;5090102;28;20036;-49
2023/09/04 02:41:08;;;;;;;10.18;3.92;;;;;;;20.96;68.60;101465.50;5091924;28;20039;-46
2023/09/04 02:43:34;;;;;;;6.43;3.08;;;;;;;20.79;69.20;101470.25;5092281;28;20031;-48
2023/09/04 02:46:00;;;;;;;10.32;4.10;;;;;;;20.74;69.59;101470.22;5092893;28;20115;-46
2023/09/04 02:48:27;;;;;;;12.82;3.95;;;;;;;20.73;69.98;101471.28;5079871;28;20182;-54
2023/09/04 02:51:02;;;;;;;7.65;3.50;;;;;;;20.65;70.54;101464.41;5084919;28;20020;-48
2023/09/04 02:53:28;;;;;;;6.03;3.60;;;;;;;20.63;70.60;101479.34;5072690;28;20044;-48
2023/09/04 02:55:55;;;;;;;7.13;3.75;;;;;;;20.46;71.23;101461.25;5088878;28;20042;-47
2023/09/04 02:58:22;;;;;;;9.27;3.80;;;;;;;20.49;71.37;101466.19;5086042;28;20017;-48
2023/09/04 03:00:50;;;;;;;7.97;4.28;;;;;;;20.45;71.16;101469.63;5083411;28;20044;-48
2023/09/04 03:03:19;;;;;;;8.70;3.63;;;;;;;20.46;71.34;101474.84;5087246;28;20020;-45
2023/09/04 03:05:46;;;;;;;8.15;3.95;;;;;;;20.58;71.39;101474.69;5098461;28;20460;-46
2023/09/04 03:08:13;;;;;;;7.95;3.55;;;;;;;20.58;71.31;101479.31;5093647;28;20028;-47
2023/09/04 03:10:39;;;;;;;8.85;4.13;;;;;;;20.51;71.61;101472.19;5112727;28;20189;-47
2023/09/04 03:13:05;;;;;;;6.07;3.78;;;;;;;20.42;71.97;101481.00;5106463;28;20035;-47
2023/09/04 03:15:31;;;;;;;7.65;4.00;;;;;;;20.27;72.06;101482.50;5092317;28;20050;-45
2023/09/04 03:17:57;;;;;;;6.10;3.47;;;;;;;20.15;72.47;101480.97;5091934;28;20070;-46
2023/09/04 03:20:24;;;;;;;7.50;3.97;;;;;;;20.03;73.12;101484.66;5092182;28;20031;-46
2023/09/04 03:22:50;;;;;;;7.80;3.80;;;;;;;20.16;72.93;101483.47;5092243;28;20028;-46
2023/09/04 03:25:16;;;;;;;9.00;3.95;;;;;;;20.00;73.75;101484.34;5090809;28;20081;-47
2023/09/04 03:27:42;;;;;;;5.95;3.10;;;;;;;19.98;73.77;101492.75;5092487;28;20101;-45
2023/09/04 03:30:11;;;;;;;8.88;3.72;;;;;;;20.10;73.99;101489.91;5092291;28;20028;-45
2023/09/04 03:32:37;;;;;;;7.80;3.38;;;;;;;20.07;74.49;101484.16;5091885;28;20028;-46
2023/09/04 03:35:04;;;;;;;8.25;3.45;;;;;;;19.93;74.65;101486.41;5091959;28;20155;-47
2023/09/04 03:37:35;;;;;;;9.20;4.15;;;;;;;19.88;74.66;101491.81;5083326;28;20043;-45
2023/09/04 03:40:24;;;;;;;8.80;3.65;;;;;;;19.82;75.07;101493.63;5082593;28;20033;-45
2023/09/04 03:42:52;;;;;;;6.38;3.83;;;;;;;19.76;75.20;101492.72;5080866;28;20040;-46
2023/09/04 03:45:18;;;;;;;6.75;3.92;;;;;;;19.64;75.70;101497.47;5071488;28;20028;-47
2023/09/04 03:47:46;;;;;;;12.98;4.47;;;;;;;19.58;76.48;101498.44;5071072;28;20021;-46
2023/09/04 03:50:13;;;;;;;11.05;4.55;;;;;;;19.58;76.02;101503.84;5071371;28;20383;-45
2023/09/04 03:52:40;;;;;;;8.75;3.47;;;;;;;19.64;75.88;101500.16;5078378;28;20048;-46
2023/09/04 03:55:08;;;;;;;10.93;3.78;;;;;;;19.70;75.80;101496.44;5074463;28;20040;-47
2023/09/04 03:57:39;;;;;;;5.57;3.28;;;;;;;19.52;76.23;101494.00;5075652;28;20126;-45
2023/09/04 04:00:14;;;;;;;5.50;3.80;;;;;;;19.32;76.66;101499.13;5091380;28;20028;-46
2023/09/04 04:02:41;;;;;;;8.57;3.85;;;;;;;19.34;77.05;101497.81;5091719;28;20108;-47
2023/09/04 04:05:12;;;;;;;9.48;4.03;;;;;;;19.44;76.94;101497.97;5091438;28;20024;-48
2023/09/04 04:07:39;;;;;;;6.38;3.47;;;;;;;19.41;76.70;101511.22;5104559;28;20111;-47
2023/09/04 04:10:06;;;;;;;10.43;4.15;;;;;;;19.41;76.39;101505.78;5091279;28;20103;-45
2023/09/04 04:12:32;;;;;;;6.82;3.90;;;;;;;19.50;76.06;101502.41;5092053;28;20032;-49
2023/09/04 04:14:59;;;;;;;6.90;3.78;;;;;;;19.39;76.45;101519.63;5095769;28;20092;-46
2023/09/04 04:17:26;;;;;;;7.68;3.72;;;;;;;19.36;76.70;101522.00;5095173;28;20059;-48
2023/09/04 04:19:53;;;;;;;11.07;3.63;;;;;;;19.36;76.95;101516.56;5095781;28;20516;-45
2023/09/04 04:22:20;;;;;;;4.65;3.20;;;;;;;19.35;76.74;101514.91;5095284;28;20108;-46
2023/09/04 04:24:47;;;;;;;6.43;3.60;;;;;;;19.25;76.95;101521.81;5095544;28;20035;-47
2023/09/04 04:27:15;;;;;;;5.57;3.60;;;;;;;19.25;76.82;101519.13;5095093;28;20027;-47
2023/09/04 04:29:46;;;;;;;6.60;3.63;;;;;;;19.25;76.95;101519.13;5095333;28;20035;-47
2023/09/04 04:32:14;;;;;;;7.32;4.05;;;;;;;19.18;77.22;101521.19;5087171;28;20404;-46
2023/09/04 04:34:41;;;;;;;5.35;3.45;;;;;;;19.15;77.19;101515.41;5075185;28;20032;-46
2023/09/04 04:37:07;;;;;;;9.18;3.92;;;;;;;19.10;77.55;101526.19;5075167;28;20045;-46
2023/09/04 04:39:34;;;;;;;10.73;4.20;;;;;;;19.14;77.66;101525.44;5074876;28;20115;-47
2023/09/04 04:42:00;;;;;;;10.07;3.88;;;;;;;19.19;77.46;101519.28;5080133;28;20028;-46
2023/09/04 04:44:26;;;;;;;6.10;4.18;;;;;;;19.30;77.13;101522.97;5094936;28;20028;-46
2023/09/04 04:46:53;;;;;;;8.45;4.03;;;;;;;19.43;76.43;101525.34;5094689;28;20038;-48
2023/09/04 04:49:23;;;;;;;7.05;4.00;;;;;;;19.21;77.57;101526.13;5094809;28;20490;-45
2023/09/04 04:51:49;;;;;;;7.25;3.78;;;;;;;19.21;77.82;101525.28;5094851;28;20549;-46
2023/09/04 04:54:16;;;;;;;10.32;3.60;;;;;;;19.19;78.07;101522.81;5094588;28;20142;-47
2023/09/04 04:56:42;;;;;;;7.35;4.00;;;;;;;19.18;78.41;101520.34;5094498;28;20531;-45
2023/09/04 04:59:09;;;;;;;4.95;3.55;;;;;;;19.02;78.89;101521.16;5094525;28;20024;-44
2023/09/04 05:01:35;;;;;;;8.13;4.07;;;;;;;19.01;79.66;101519.53;5095027;28;20497;-43
2023/09/04 05:04:01;;;;;;;5.55;3.30;;;;;;;18.85;79.82;101516.53;5094761;28;20038;-43
2023/09/04 05:06:28;;;;;;;5.25;3.63;;;;;;;18.89;79.92;101516.88;5094294;28;20028;-45
2023/09/04 05:08:54;;;;;;;5.20;3.80;;;;;;;18.79;79.90;101527.56;5094816;28;20036;-43
2023/09/04 05:11:21;;;;;;;5.45;3.30;;;;;;;18.74;80.30;101514.72;5094291;28;20032;-42
2023/09/04 05:13:47;;;;;;;5.50;3.40;;;;;;;18.69;80.06;101511.91;5094600;28;20027;-43
2023/09/04 05:16:13;;;;;;;5.95;3.20;;;;;;;18.86;79.94;101507.34;5094007;28;20024;-45
2023/09/04 05:18:39;;;;;;;10.70;3.90;;;;;;;18.91;79.54;101504.72;5094257;28;20028;-44
2023/09/04 05:21:07;;;;;;;8.75;3.97;;;;;;;18.97;79.23;101502.91;5094442;28;20028;-43
2023/09/04 05:23:34;;;;;;;6.65;3.65;;;;;;;18.98;78.70;101508.09;5093440;28;20169;-43
2023/09/04 05:26:00;;;;;;;8.13;3.70;;;;;;;18.90;79.50;101499.53;5094123;28;20115;-43
2023/09/04 05:28:27;;;;;;;7.20;4.50;;;;;;;18.66;79.72;101510.50;5094206;28;20023;-44
2023/09/04 05:30:53;;;;;;;7.10;3.63;;;;;;;18.53;80.12;101508.06;5094385;28;20024;-43
2023/09/04 05:33:20;;;;;;;9.95;3.60;;;;;;;18.50;80.49;101497.72;5084218;28;20028;-43
2023/09/04 05:35:55;;;;;;;6.45;3.95;;;;;;;18.55;79.96;101497.00;5094906;28;20105;-47
2023/09/04 05:38:22;;;;;;;8.13;3.85;;;;;;;18.39;80.63;101494.00;5078077;28;20106;-45
2023/09/04 05:40:52;;;;;;;5.88;3.65;;;;;;;18.35;80.27;101494.72;5079807;28;20024;-45
2023/09/04 05:43:18;;;;;;;6.03;4.22;;;;;;;18.27;81.26;101497.81;5073889;28;20431;-45
2023/09/04 05:45:45;;;;;;;8.07;4.20;;;;;;;18.11;82.29;101483.97;5076890;28;20031;-47
2023/09/04 05:48:11;;;;;;;5.93;3.97;;;;;;;18.15;81.99;101482.41;5073089;28;20060;-47
2023/09/04 05:50:37;;;;;;;7.07;3.90;;;;;;;18.25;81.30;101480.97;5084034;28;20055;-44
2023/09/04 05:53:03;;;;;;;7.15;4.50;;;;;;;18.40;80.91;101470.41;5092935;28;20105;-47
2023/09/04 05:55:30;;;;;;;8.95;4.13;;;;;;;18.32;80.94;101473.50;5078320;28;20523;-46
2023/09/04 05:57:56;;;;;;;6.70;3.50;;;;;;;18.30;80.98;101475.66;5075856;28;20032;-45
2023/09/04 06:00:22;;;;;;;4.80;3.72;;;;;;;18.28;81.25;101480.50;5077221;28;20032;-45
2023/09/04 06:02:48;;;;;;;5.93;3.97;;;;;;;18.26;81.23;101479.91;5073283;28;20024;-46
2023/09/04 06:05:15;;;;;;;6.60;3.80;;;;;;;18.23;81.24;101480.41;5073532;28;20112;-46
2023/09/04 06:07:42;;;;;;;8.80;3.95;;;;;;;18.17;81.72;101483.00;5091344;28;20023;-45
2023/09/04 06:10:09;;;;;;;7.72;3.80;;;;;;;18.27;82.08;101489.69;5113917;28;20035;-47
2023/09/04 06:12:35;;;;;;;11.82;3.78;;;;;;;18.24;82.03;101487.44;5100910;28;20020;-45
2023/09/04 06:15:01;;;;;;;7.45;4.03;;;;;;;18.31;81.99;101485.41;5073012;28;20032;-45
2023/09/04 06:17:28;;;;;;;8.68;3.95;;;;;;;18.25;81.98;101486.38;5072671;28;20032;-45
2023/09/04 06:19:54;;;;;;;5.15;3.47;;;;;;;18.05;82.46;101486.81;5111413;28;20027;-47
2023/09/04 06:22:20;;;;;;;5.78;3.50;;;;;;;18.02;82.48;101479.16;5113372;28;20050;-45
2023/09/04 06:24:48;;;;;;;4.55;3.50;;;;;;;17.94;82.96;101470.34;5101219;28;20020;-45
2023/09/04 06:27:14;;;;;;;5.55;3.47;;;;;;;17.87;82.67;101466.94;5092918;28;20397;-45
2023/09/04 06:29:41;;;;;;;5.97;3.63;;;;;;;17.84;83.04;101475.56;5093056;28;20051;-45
2023/09/04 06:32:07;;;;;;;7.10;3.42;;;;;;;17.86;82.99;101472.59;5085315;28;20387;-45
2023/09/04 06:34:33;;;;;;;8.40;4.20;;;;;;;17.91;82.86;101481.66;5072775;28;20092;-45
2023/09/04 06:36:59;;;;;;;7.07;4.18;;;;;;;17.89;82.54;101480.25;5071256;28;20048;-46
2023/09/04 06:39:26;;;;;;;7.57;3.78;;;;;;;17.93;82.64;101475.97;5072805;28;20025;-46
2023/09/04 06:41:53;;;;;;;4.45;3.67;;;;;;;17.89;82.83;101477.53;5085371;28;20501;-46
2023/09/04 06:44:19;;;;;;;8.20;3.78;;;;;;;17.98;82.67;101475.28;5092628;28;20028;-46
2023/09/04 06:46:46;;;;;;;8.95;4.07;;;;;;;17.91;83.12;101478.13;5092552;28;20024;-47
2023/09/04 06:49:13;;;;;;;5.28;3.17;;;;;;;17.92;82.72;101477.06;5092313;28;20390;-45
2023/09/04 06:51:39;;;;;;;8.35;4.32;;;;;;;18.08;82.29;101479.00;5092843;28;20052;-45
2023/09/04 06:54:06;;;;;;;6.35;4.20;;;;;;;17.83;82.98;101475.78;5092341;28;20097;-46
2023/09/04 06:56:32;;;;;;;4.47;3.40;;;;;;;17.77;82.85;101477.56;5082940;28;20138;-45
2023/09/04 06:58:58;;;;;;;5.88;3.85;;;;;;;17.69;83.30;101469.78;5085578;28;20032;-46
2023/09/04 07:01:24;;;;;;;8.90;4.20;;;;;;;17.75;82.91;101476.97;5092572;28;20390;-47
2023/09/04 07:03:50;;;;;;;9.13;4.88;;;;;;;17.65;82.92;101477.53;5092447;28;20038;-44
2023/09/04 07:06:17;;;;;;;7.63;4.45;;;;;;;17.66;83.32;101468.38;5092068;28;20024;-45
2023/09/04 07:08:43;;;;;;;7.50;4.38;;;;;;;17.69;83.48;101469.78;5092147;28;20105;-45
2023/09/04 07:11:09;;;;;;;7.55;4.45;;;;;;;17.69;84.52;101461.66;5092819;28;20024;-44
2023/09/04 07:13:36;;;;;;;7.25;4.20;;;;;;;17.78;84.48;101456.72;5092140;28;20021;-47
2023/09/04 07:16:02;;;;;;;11.23;4.20;;;;;;;17.67;84.94;101458.38;5085968;28;20446;-44
2023/09/04 07:18:29;;;;;;;11.15;4.35;;;;;;;17.83;85.15;101465.78;5077946;28;20028;-47
2023/09/04 07:20:55;;;;;;;7.32;4.18;;;;;;;17.83;85.81;101459.56;5071832;28;20029;-45
2023/09/04 07:23:21;;;;;;;6.70;3.75;;;;;;;17.91;85.56;101462.69;5075039;28;20471;-45
2023/09/04 07:25:47;;;;;;;6.43;3.67;;;;;;;17.80;86.44;101458.13;5071624;28;20120;-47
2023/09/04 07:28:14;;;;;;;8.93;3.70;;;;;;;17.76;86.25;101464.25;5071515;28;20107;-44
2023/09/04 07:30:40;;;;;;;7.07;3.70;;;;;;;17.67;86.58;101455.66;5072031;28;20111;-46
2023/09/04 07:33:06;;;;;;;5.78;3.85;;;;;;;17.84;85.96;101461.19;5085843;28;20067;-44
2023/09/04 07:35:32;;;;;;;7.60;3.85;;;;;;;17.90;85.54;101460.22;5092076;28;20055;-44
2023/09/04 07:37:59;;;;;;;7.20;3.72;;;;;;;17.73;85.95;101460.16;5091315;28;20028;-44
2023/09/04 07:40:26;;;;;;;5.50;4.05;;;;;;;17.65;86.72;101461.28;5091881;28;20073;-45
2023/09/04 07:42:52;;;;;;;6.25;3.60;;;;;;;17.63;86.78;101465.31;5091825;28;20083;-44
2023/09/04 07:45:21;;;;;;;6.97;3.67;;;;;;;17.78;86.67;101459.44;5091827;28;20034;-46
2023/09/04 07:47:48;;;;;;;8.65;3.90;;;;;;;17.81;86.68;101464.38;5091211;28;20020;-44
2023/09/04 07:50:14;;;;;;;8.70;4.60;;;;;;;17.80;86.70;101454.59;5091674;28;20465;-44
2023/09/04 07:52:40;;;;;;;10.60;4.80;;;;;;;17.76;86.77;101464.25;5091472;28;20105;-45
2023/09/04 07:55:09;;;;;;;7.15;3.67;;;;;;;17.71;86.86;101445.16;5091649;28;20448;-44
2023/09/04 07:57:36;;;;;;;7.53;4.07;;;;;;;17.68;86.53;101447.28;5097346;28;20430;-46
2023/09/04 08:00:03;;;;;;;9.02;3.88;;;;;;;17.74;86.28;101450.13;5111897;28;20019;-47
2023/09/04 08:02:29;;;;;;;6.55;3.90;;;;;;;17.69;86.95;101453.53;5111839;28;20035;-44
2023/09/04 08:04:56;;;;;;;7.80;4.10;;;;;;;17.81;86.58;101448.94;5111887;28;20107;-48
2023/09/04 08:07:22;;;;;;;11.48;4.05;;;;;;;17.75;86.63;101447.19;5094117;28;20024;-45
2023/09/04 08:09:48;;;;;;;5.07;3.38;;;;;;;17.78;86.40;101451.31;5074315;28;20040;-47
2023/09/04 08:12:14;;;;;;;6.63;3.88;;;;;;;17.73;86.30;101441.19;5088452;28;20017;-45
2023/09/04 08:14:41;;;;;;;6.30;3.67;;;;;;;17.63;86.51;101449.88;5091711;28;20036;-46
2023/09/04 08:17:07;;;;;;;9.07;3.60;;;;;;;17.61;86.99;101457.44;5090902;28;20031;-45
2023/09/04 08:19:33;;;;;;;8.48;4.05;;;;;;;17.75;86.30;101444.47;5091292;28;20599;-45
2023/09/04 08:21:59;;;;;;;7.50;3.40;;;;;;;17.75;86.29;101446.38;5091226;28;20482;-44
2023/09/04 08:24:26;;;;;;;9.35;4.47;;;;;;;17.77;86.31;101450.50;5091127;28;20032;-45
2023/09/04 08:26:52;;;;;;;7.43;4.00;;;;;;;17.81;86.37;101446.22;5090988;28;20027;-46
2023/09/04 08:29:18;;;;;;;7.38;3.50;;;;;;;17.75;87.12;101449.06;5090955;28;20024;-45
2023/09/04 08:31:44;;;;;;;6.47;3.05;;;;;;;17.75;86.97;101441.78;5091543;28;20028;-46
2023/09/04 08:34:10;;;;;;;7.15;3.55;;;;;;;17.78;86.86;101445.91;5091196;28;20109;-46
2023/09/04 08:36:38;;;;;;;6.45;3.20;;;;;;;17.77;86.98;101442.38;5090142;28;20466;-44
2023/09/04 08:39:04;;;;;;;6.32;3.45;;;;;;;17.99;86.36;101442.56;5091250;28;20050;-47
2023/09/04 08:41:31;;;;;;;4.38;3.05;;;;;;;17.85;86.46;101441.16;5091166;28;20043;-45
2023/09/04 08:43:58;;;;;;;6.35;3.38;;;;;;;17.74;86.94;101440.13;5091154;28;20024;-46
2023/09/04 08:46:26;;;;;;;6.55;2.97;;;;;;;17.74;86.77;101433.91;5091069;28;20047;-45
2023/09/04 08:48:56;;;;;;;8.35;3.15;;;;;;;17.85;86.36;101430.34;5090981;28;20028;-44
2023/09/04 08:51:23;;;;;;;9.07;3.28;;;;;;;17.86;86.58;101434.69;5085324;28;20103;-46
2023/09/04 08:53:50;;;;;;;5.93;3.20;;;;;;;17.89;86.50;101431.50;5069805;28;20044;-44
2023/09/04 08:56:17;;;;;;;5.78;2.92;;;;;;;17.68;86.79;101431.03;5070628;28;20046;-47
2023/09/04 08:58:43;;;;;;;7.68;3.45;;;;;;;17.74;86.71;101431.19;5070947;28;20036;-44
2023/09/04 09:01:14;;;;;;;4.75;3.15;;;;;;;17.66;86.68;101427.75;5074325;28;20029;-43
2023/09/04 09:03:43;;;;;;;4.35;2.80;;;;;;;17.63;86.29;101424.69;5074451;28;20111;-45
2023/09/04 09:06:09;;;;;;;5.30;2.58;;;;;;;17.64;85.57;101426.34;5074240;28;20020;-48
2023/09/04 09:08:36;;;;;;;7.05;2.72;;;;;;;17.53;85.88;101419.88;5074352;28;20082;-44
2023/09/04 09:11:03;;;;;;;5.05;2.25;;;;;;;17.47;85.93;101426.25;5075450;28;20034;-44
2023/09/04 09:13:29;;;;;;;5.03;2.97;;;;;;;17.47;86.43;101422.72;5074248;28;20024;-43
2023/09/04 09:15:56;;;;;;;4.13;2.80;;;;;;;17.31;87.19;101418.84;5074018;28;20028;-44
2023/09/04 09:18:42;;;;;;;5.13;2.78;;;;;;;17.46;87.53;101418.38;5073794;28;20031;-44
2023/09/04 09:21:25;;;;;;;5.93;3.17;;;;;;;17.39;87.94;101418.50;5074569;28;20379;-44
2023/09/04 09:24:09;;;;;;;7.53;3.10;;;;;;;17.31;88.61;101413.44;5073918;28;20040;-44
2023/09/04 09:26:42;;;;;;;7.53;3.33;;;;;;;17.34;89.19;101405.69;5073812;28;20025;-46
2023/09/04 09:29:10;;;;;;;5.32;3.08;;;;;;;17.34;89.43;101397.56;5073645;28;20036;-45
2023/09/04 09:31:37;;;;;;;5.60;3.28;;;;;;;17.30;89.17;101400.97;5074239;28;20035;-44
2023/09/04 09:34:04;;;;;;;5.75;3.08;;;;;;;17.21;89.74;101403.22;5074425;28;20086;-46
2023/09/04 09:36:31;;;;;;;5.47;2.60;;;;;;;17.37;89.93;101401.66;5073462;28;20037;-44
2023/09/04 09:38:57;;;;;;;7.50;3.20;;;;;;;17.39;89.39;101399.56;5073660;28;20025;-44
2023/09/04 09:41:25;;;;;;;5.20;2.90;;;;;;;17.38;89.76;101395.22;5073834;28;20027;-44
2023/09/04 09:43:51;;;;;;;10.40;3.55;;;;;;;17.43;89.61;101395.31;5074168;28;20107;-43
2023/09/04 09:46:18;;;;;;;4.55;2.95;;;;;;;17.34;90.07;101400.28;5073632;28;20025;-44
2023/09/04 09:48:47;;;;;;;8.07;3.28;;;;;;;17.40;90.36;101396.63;5073488;28;20032;-46
2023/09/04 09:51:14;;;;;;;5.45;3.15;;;;;;;17.28;90.87;101389.59;5073118;28;20020;-45
2023/09/04 09:53:51;;;;;;;7.80;2.92;;;;;;;17.43;90.77;101403.41;5073250;28;20125;-44
2023/09/04 09:56:19;;;;;;;5.72;2.90;;;;;;;17.30;90.87;101406.41;5073458;28;20467;-44
2023/09/04 09:58:47;;;;;;;5.82;2.90;;;;;;;17.46;90.22;101399.44;5073384;28;20056;-46
2023/09/04 10:01:15;;;;;;;6.80;3.20;;;;;;;17.42;90.28;101399.06;5073322;28;20024;-44
2023/09/04 10:03:43;;;;;;;6.10;2.90;;;;;;;17.35;89.83;101398.38;5074048;28;20034;-45
2023/09/04 10:06:14;;;;;;;6.30;3.45;;;;;;;17.28;90.50;101403.13;5071520;28;20123;-44
2023/09/04 10:08:43;;;;;;;6.30;2.92;;;;;;;17.22;90.97;101404.06;5073237;28;20032;-42
2023/09/04 10:11:14;;;;;;;6.93;3.15;;;;;;;17.18;90.90;101398.28;5072894;28;20016;-43
2023/09/04 10:14:04;;;;;;;7.93;3.50;;;;;;;17.37;90.25;101402.50;5073438;28;20107;-42
2023/09/04 10:16:39;;;;;;;7.15;3.28;;;;;;;17.25;90.43;101403.56;5072939;28;20049;-43
2023/09/04 10:19:09;;;;;;;6.90;3.70;;;;;;;17.21;90.47;101408.63;5082554;28;20058;-43
2023/09/04 10:21:41;;;;;;;5.32;2.88;;;;;;;17.17;90.30;101402.06;5093121;28;20032;-44
2023/09/04 10:24:16;;;;;;;6.63;3.10;;;;;;;17.05;89.94;101406.66;5074972;28;20490;-45
2023/09/04 10:26:58;;;;;;;5.55;3.38;;;;;;;17.10;90.73;101406.75;5072575;28;20463;-44
2023/09/04 10:29:29;;;;;;;6.50;2.95;;;;;;;17.11;91.04;101408.41;5072891;28;20115;-45
2023/09/04 10:31:56;;;;;;;5.50;3.40;;;;;;;17.06;91.14;101401.00;5072606;28;20502;-45
2023/09/04 10:34:22;;;;;;;9.90;3.38;;;;;;;16.76;93.64;101400.25;5072446;28;20439;-45
2023/09/04 10:36:49;;;;;;;5.82;3.30;;;;;;;16.82;93.58;101412.84;5072565;28;20033;-45
2023/09/04 10:39:16;;;;;;;6.55;3.10;;;;;;;16.87;93.04;101407.56;5072610;28;20059;-45
2023/09/04 10:41:43;;;;;;;6.03;3.10;;;;;;;16.75;93.45;101402.16;5084440;28;20032;-44
2023/09/04 10:44:11;;;;;;;5.63;3.03;;;;;;;16.72;93.83;101399.94;5092703;28;20030;-45
2023/09/04 10:46:53;;;;;;;5.25;2.88;;;;;;;16.88;93.10;101398.41;5092534;28;20044;-45
2023/09/04 10:49:32;;;;;;;3.97;2.60;;;;;;;16.86;93.17;101400.50;5092864;28;20462;-44
2023/09/04 10:51:58;;;;;;;9.93;3.55;;;;;;;16.94;92.78;101396.66;5092284;28;20428;-44
2023/09/04 10:54:25;;;;;;;6.65;2.90;;;;;;;16.80;93.55;101390.63;5092775;28;20028;-45
2023/09/04 10:57:15;;;;;;;8.80;3.92;;;;;;;16.73;93.95;101387.22;5091977;28;20486;-47
2023/09/04 10:59:54;;;;;;;9.23;3.40;;;;;;;16.91;93.42;101391.69;5082514;28;20025;-44
2023/09/04 11:02:31;;;;;;;10.05;3.13;;;;;;;16.87;93.61;101386.75;5072262;28;20052;-44
2023/09/04 11:04:59;;;;;;;6.88;3.33;;;;;;;16.99;92.58;101386.78;5072112;28;20036;-45
2023/09/04 11:07:27;;;;;;;8.60;3.40;;;;;;;16.88;92.52;101390.31;5071692;28;20020;-46
2023/09/04 11:10:13;;;;;;;7.03;3.10;;;;;;;16.86;92.65;101385.13;5072269;28;20028;-45
2023/09/04 11:12:42;;;;;;;4.55;2.80;;;;;;;16.88;92.92;101387.59;5072062;28;20200;-46
2023/09/04 11:15:15;;;;;;;4.85;2.78;;;;;;;16.85;92.97;101388.88;5071952;28;20036;-47
2023/09/04 11:17:46;;;;;;;7.22;3.13;;;;;;;16.79;93.40;101389.00;5072261;28;20032;-44
2023/09/04 11:20:15;;;;;;;5.40;2.85;;;;;;;16.82;92.67;101386.66;5071861;28;20039;-46
2023/09/04 11:22:48;;;;;;;5.70;2.92;;;;;;;16.82;93.21;101386.66;5070646;28;20038;-44
2023/09/04 11:25:18;;;;;;;4.95;2.90;;;;;;;16.89;93.04;101387.38;5070979;28;20025;-45
2023/09/04 11:27:46;;;;;;;7.53;3.13;;;;;;;16.80;93.23;101382.53;5071532;28;20086;-46